sensor_id;sensor_type;location;lat;lon;timestamp;P1;durP1;ratioP1;P2;durP2;ratioP2
21729;SDS011;11027;51.030;13.812;2022-08-25T00:00:48;18.90;;;11.18;;
21729;SDS011;11027;51.030;13.812;2022-08-25T00:03:14;20.33;;;11.65;;
21729;SDS011;11027;51.030;13.812;2022-08-25T00:05:40;14.60;;;11.23;;
21729;SDS011;11027;51.030;13.812;2022-08-25T00:08:05;19.73;;;11.15;;
21729;SDS011;11027;51.030;13.812;2022-08-25T00:10:35;14.40;;;11.27;;
21729;SDS011;11027;51.030;13.812;2022-08-25T00:13:02;19.02;;;10.95;;
21729;SDS011;11027;51.030;13.812;2022-08-25T00:15:29;18.95;;;11.57;;
21729;SDS011;11027;51.030;13.812;2022-08-25T00:17:56;16.20;;;11.15;;
21729;SDS011;11027;51.030;13.812;2022-08-25T00:20:21;12.60;;;11.38;;
21729;SDS011;11027;51.030;13.812;2022-08-25T00:22:47;15.18;;;11.15;;
21729;SDS011;11027;51.030;13.812;2022-08-25T00:25:13;17.00;;;11.38;;
21729;SDS011;11027;51.030;13.812;2022-08-25T00:27:39;19.20;;;12.18;;
21729;SDS011;11027;51.030;13.812;2022-08-25T00:30:05;14.65;;;11.45;;
21729;SDS011;11027;51.030;13.812;2022-08-25T00:32:31;16.23;;;11.30;;
21729;SDS011;11027;51.030;13.812;2022-08-25T00:34:56;26.92;;;12.48;;
21729;SDS011;11027;51.030;13.812;2022-08-25T00:37:22;18.48;;;11.80;;
21729;SDS011;11027;51.030;13.812;2022-08-25T00:39:48;17.63;;;11.68;;
21729;SDS011;11027;51.030;13.812;2022-08-25T00:42:13;15.70;;;11.80;;
21729;SDS011;11027;51.030;13.812;2022-08-25T00:44:39;17.83;;;11.55;;
21729;SDS011;11027;51.030;13.812;2022-08-25T00:47:05;21.23;;;12.48;;
21729;SDS011;11027;51.030;13.812;2022-08-25T00:49:41;18.15;;;11.70;;
21729;SDS011;11027;51.030;13.812;2022-08-25T00:52:13;14.65;;;11.52;;
21729;SDS011;11027;51.030;13.812;2022-08-25T00:54:50;15.85;;;11.93;;
21729;SDS011;11027;51.030;13.812;2022-08-25T00:57:27;18.67;;;11.18;;
21729;SDS011;11027;51.030;13.812;2022-08-25T00:59:56;19.15;;;11.90;;
21729;SDS011;11027;51.030;13.812;2022-08-25T01:02:22;17.88;;;11.70;;
21729;SDS011;11027;51.030;13.812;2022-08-25T01:04:47;19.08;;;12.27;;
21729;SDS011;11027;51.030;13.812;2022-08-25T01:07:13;17.75;;;11.55;;
21729;SDS011;11027;51.030;13.812;2022-08-25T01:09:40;14.82;;;12.23;;
21729;SDS011;11027;51.030;13.812;2022-08-25T01:12:06;17.50;;;12.93;;
21729;SDS011;11027;51.030;13.812;2022-08-25T01:14:33;16.25;;;11.98;;
21729;SDS011;11027;51.030;13.812;2022-08-25T01:16:59;15.60;;;11.93;;
21729;SDS011;11027;51.030;13.812;2022-08-25T01:19:25;18.35;;;12.00;;
21729;SDS011;11027;51.030;13.812;2022-08-25T01:21:52;14.63;;;11.80;;
21729;SDS011;11027;51.030;13.812;2022-08-25T01:24:23;18.52;;;12.65;;
21729;SDS011;11027;51.030;13.812;2022-08-25T01:26:55;18.05;;;11.90;;
21729;SDS011;11027;51.030;13.812;2022-08-25T01:29:21;16.20;;;10.98;;
21729;SDS011;11027;51.030;13.812;2022-08-25T01:31:50;16.60;;;12.00;;
21729;SDS011;11027;51.030;13.812;2022-08-25T01:34:19;17.40;;;11.43;;
21729;SDS011;11027;51.030;13.812;2022-08-25T01:36:45;16.98;;;11.60;;
21729;SDS011;11027;51.030;13.812;2022-08-25T01:39:11;18.50;;;12.10;;
21729;SDS011;11027;51.030;13.812;2022-08-25T01:44:08;17.10;;;12.23;;
21729;SDS011;11027;51.030;13.812;2022-08-25T01:46:34;16.30;;;12.15;;
21729;SDS011;11027;51.030;13.812;2022-08-25T01:49:00;15.82;;;11.40;;
21729;SDS011;11027;51.030;13.812;2022-08-25T01:51:27;17.40;;;11.45;;
21729;SDS011;11027;51.030;13.812;2022-08-25T01:53:54;16.33;;;11.45;;
21729;SDS011;11027;51.030;13.812;2022-08-25T01:56:19;16.98;;;11.80;;
21729;SDS011;11027;51.030;13.812;2022-08-25T01:58:46;20.25;;;11.65;;
21729;SDS011;11027;51.030;13.812;2022-08-25T02:01:15;19.70;;;12.00;;
21729;SDS011;11027;51.030;13.812;2022-08-25T02:03:44;17.60;;;11.90;;
21729;SDS011;11027;51.030;13.812;2022-08-25T02:06:11;14.07;;;11.38;;
21729;SDS011;11027;51.030;13.812;2022-08-25T02:08:38;16.23;;;10.98;;
21729;SDS011;11027;51.030;13.812;2022-08-25T02:11:04;21.05;;;11.60;;
21729;SDS011;11027;51.030;13.812;2022-08-25T02:13:30;16.48;;;11.25;;
21729;SDS011;11027;51.030;13.812;2022-08-25T02:15:55;17.33;;;11.20;;
21729;SDS011;11027;51.030;13.812;2022-08-25T02:18:24;13.07;;;10.50;;
21729;SDS011;11027;51.030;13.812;2022-08-25T02:20:49;15.23;;;11.88;;
21729;SDS011;11027;51.030;13.812;2022-08-25T02:23:15;15.90;;;11.15;;
21729;SDS011;11027;51.030;13.812;2022-08-25T02:25:40;16.48;;;11.52;;
21729;SDS011;11027;51.030;13.812;2022-08-25T02:28:07;17.70;;;10.57;;
21729;SDS011;11027;51.030;13.812;2022-08-25T02:30:34;22.75;;;11.38;;
21729;SDS011;11027;51.030;13.812;2022-08-25T02:33:01;14.82;;;11.68;;
21729;SDS011;11027;51.030;13.812;2022-08-25T02:35:26;16.08;;;11.25;;
21729;SDS011;11027;51.030;13.812;2022-08-25T02:37:52;19.65;;;11.23;;
21729;SDS011;11027;51.030;13.812;2022-08-25T02:40:18;15.48;;;12.30;;
21729;SDS011;11027;51.030;13.812;2022-08-25T02:42:45;13.82;;;11.18;;
21729;SDS011;11027;51.030;13.812;2022-08-25T02:45:11;13.88;;;10.73;;
21729;SDS011;11027;51.030;13.812;2022-08-25T02:47:36;13.27;;;10.52;;
21729;SDS011;11027;51.030;13.812;2022-08-25T02:50:05;18.58;;;11.48;;
21729;SDS011;11027;51.030;13.812;2022-08-25T02:52:31;16.20;;;11.77;;
21729;SDS011;11027;51.030;13.812;2022-08-25T02:54:56;16.30;;;10.82;;
21729;SDS011;11027;51.030;13.812;2022-08-25T02:57:21;14.15;;;11.30;;
21729;SDS011;11027;51.030;13.812;2022-08-25T02:59:47;14.68;;;10.77;;
21729;SDS011;11027;51.030;13.812;2022-08-25T03:02:12;15.98;;;11.65;;
21729;SDS011;11027;51.030;13.812;2022-08-25T03:04:38;14.45;;;10.55;;
21729;SDS011;11027;51.030;13.812;2022-08-25T03:07:04;16.17;;;10.52;;
21729;SDS011;11027;51.030;13.812;2022-08-25T03:09:29;14.52;;;11.00;;
21729;SDS011;11027;51.030;13.812;2022-08-25T03:11:54;13.65;;;11.85;;
21729;SDS011;11027;51.030;13.812;2022-08-25T03:14:20;15.80;;;11.48;;
21729;SDS011;11027;51.030;13.812;2022-08-25T03:16:45;17.77;;;13.50;;
21729;SDS011;11027;51.030;13.812;2022-08-25T03:19:10;18.50;;;14.77;;
21729;SDS011;11027;51.030;13.812;2022-08-25T03:21:36;23.05;;;14.65;;
21729;SDS011;11027;51.030;13.812;2022-08-25T03:24:02;21.00;;;14.75;;
21729;SDS011;11027;51.030;13.812;2022-08-25T03:26:28;20.27;;;15.30;;
21729;SDS011;11027;51.030;13.812;2022-08-25T03:29:12;18.27;;;15.10;;
21729;SDS011;11027;51.030;13.812;2022-08-25T03:31:37;23.50;;;15.48;;
21729;SDS011;11027;51.030;13.812;2022-08-25T03:34:03;21.05;;;15.50;;
21729;SDS011;11027;51.030;13.812;2022-08-25T03:36:29;23.23;;;15.95;;
21729;SDS011;11027;51.030;13.812;2022-08-25T03:38:55;17.17;;;15.02;;
21729;SDS011;11027;51.030;13.812;2022-08-25T03:41:24;22.33;;;15.25;;
21729;SDS011;11027;51.030;13.812;2022-08-25T03:43:52;21.48;;;15.05;;
21729;SDS011;11027;51.030;13.812;2022-08-25T03:46:20;18.00;;;13.85;;
21729;SDS011;11027;51.030;13.812;2022-08-25T03:48:48;19.25;;;13.38;;
21729;SDS011;11027;51.030;13.812;2022-08-25T03:51:18;16.67;;;13.45;;
21729;SDS011;11027;51.030;13.812;2022-08-25T03:53:48;14.43;;;12.88;;
21729;SDS011;11027;51.030;13.812;2022-08-25T03:56:13;16.05;;;13.20;;
21729;SDS011;11027;51.030;13.812;2022-08-25T03:58:39;17.77;;;13.32;;
21729;SDS011;11027;51.030;13.812;2022-08-25T04:01:04;20.52;;;13.63;;
21729;SDS011;11027;51.030;13.812;2022-08-25T04:03:29;18.58;;;14.13;;
21729;SDS011;11027;51.030;13.812;2022-08-25T04:05:55;19.08;;;13.43;;
21729;SDS011;11027;51.030;13.812;2022-08-25T04:08:24;14.77;;;12.32;;
21729;SDS011;11027;51.030;13.812;2022-08-25T04:10:50;22.98;;;14.27;;
21729;SDS011;11027;51.030;13.812;2022-08-25T04:13:15;17.02;;;13.10;;
21729;SDS011;11027;51.030;13.812;2022-08-25T04:15:41;21.77;;;13.90;;
21729;SDS011;11027;51.030;13.812;2022-08-25T04:18:07;16.77;;;12.80;;
21729;SDS011;11027;51.030;13.812;2022-08-25T04:20:35;16.92;;;12.70;;
21729;SDS011;11027;51.030;13.812;2022-08-25T04:23:00;15.48;;;12.45;;
21729;SDS011;11027;51.030;13.812;2022-08-25T04:25:26;13.88;;;11.40;;
21729;SDS011;11027;51.030;13.812;2022-08-25T04:27:52;14.10;;;11.57;;
21729;SDS011;11027;51.030;13.812;2022-08-25T04:30:19;14.63;;;11.70;;
21729;SDS011;11027;51.030;13.812;2022-08-25T04:32:44;14.32;;;11.73;;
21729;SDS011;11027;51.030;13.812;2022-08-25T04:35:09;12.05;;;10.77;;
21729;SDS011;11027;51.030;13.812;2022-08-25T04:37:35;16.48;;;11.70;;
21729;SDS011;11027;51.030;13.812;2022-08-25T04:40:00;17.27;;;12.40;;
21729;SDS011;11027;51.030;13.812;2022-08-25T04:42:26;17.25;;;12.23;;
21729;SDS011;11027;51.030;13.812;2022-08-25T04:44:51;15.07;;;11.80;;
21729;SDS011;11027;51.030;13.812;2022-08-25T04:47:16;16.02;;;11.65;;
21729;SDS011;11027;51.030;13.812;2022-08-25T04:49:41;14.85;;;11.98;;
21729;SDS011;11027;51.030;13.812;2022-08-25T04:52:07;14.48;;;11.07;;
21729;SDS011;11027;51.030;13.812;2022-08-25T04:54:32;12.80;;;10.15;;
21729;SDS011;11027;51.030;13.812;2022-08-25T04:56:58;13.90;;;9.52;;
21729;SDS011;11027;51.030;13.812;2022-08-25T04:59:23;16.30;;;10.10;;
21729;SDS011;11027;51.030;13.812;2022-08-25T05:01:48;13.95;;;9.90;;
21729;SDS011;11027;51.030;13.812;2022-08-25T05:04:15;13.60;;;9.48;;
21729;SDS011;11027;51.030;13.812;2022-08-25T05:06:43;11.27;;;10.02;;
21729;SDS011;11027;51.030;13.812;2022-08-25T05:09:09;18.33;;;12.13;;
21729;SDS011;11027;51.030;13.812;2022-08-25T05:11:35;16.25;;;11.45;;
21729;SDS011;11027;51.030;13.812;2022-08-25T05:14:00;20.65;;;11.90;;
21729;SDS011;11027;51.030;13.812;2022-08-25T05:16:26;14.95;;;10.85;;
21729;SDS011;11027;51.030;13.812;2022-08-25T05:18:52;13.88;;;10.18;;
21729;SDS011;11027;51.030;13.812;2022-08-25T05:21:19;12.50;;;9.82;;
21729;SDS011;11027;51.030;13.812;2022-08-25T05:23:46;15.10;;;9.73;;
21729;SDS011;11027;51.030;13.812;2022-08-25T05:26:13;14.57;;;10.23;;
21729;SDS011;11027;51.030;13.812;2022-08-25T05:28:44;14.02;;;9.43;;
21729;SDS011;11027;51.030;13.812;2022-08-25T05:31:11;14.07;;;9.43;;
21729;SDS011;11027;51.030;13.812;2022-08-25T05:33:37;15.82;;;9.77;;
21729;SDS011;11027;51.030;13.812;2022-08-25T05:36:05;14.25;;;9.90;;
21729;SDS011;11027;51.030;13.812;2022-08-25T05:38:31;15.50;;;9.50;;
21729;SDS011;11027;51.030;13.812;2022-08-25T05:41:07;12.00;;;9.93;;
21729;SDS011;11027;51.030;13.812;2022-08-25T05:43:35;14.60;;;10.05;;
21729;SDS011;11027;51.030;13.812;2022-08-25T05:46:01;12.93;;;10.35;;
21729;SDS011;11027;51.030;13.812;2022-08-25T05:48:27;17.95;;;10.75;;
21729;SDS011;11027;51.030;13.812;2022-08-25T05:50:53;12.68;;;9.75;;
21729;SDS011;11027;51.030;13.812;2022-08-25T05:53:20;16.27;;;11.13;;
21729;SDS011;11027;51.030;13.812;2022-08-25T05:55:46;15.85;;;10.95;;
21729;SDS011;11027;51.030;13.812;2022-08-25T05:58:12;13.38;;;11.00;;
21729;SDS011;11027;51.030;13.812;2022-08-25T06:00:38;14.43;;;10.80;;
21729;SDS011;11027;51.030;13.812;2022-08-25T06:03:04;14.57;;;11.13;;
21729;SDS011;11027;51.030;13.812;2022-08-25T06:05:29;13.77;;;11.00;;
21729;SDS011;11027;51.030;13.812;2022-08-25T06:07:56;12.60;;;11.30;;
21729;SDS011;11027;51.030;13.812;2022-08-25T06:10:22;15.43;;;11.48;;
21729;SDS011;11027;51.030;13.812;2022-08-25T06:12:47;13.95;;;11.55;;
21729;SDS011;11027;51.030;13.812;2022-08-25T06:15:15;16.90;;;12.15;;
21729;SDS011;11027;51.030;13.812;2022-08-25T06:17:46;16.75;;;11.25;;
21729;SDS011;11027;51.030;13.812;2022-08-25T06:20:13;16.63;;;12.98;;
21729;SDS011;11027;51.030;13.812;2022-08-25T06:22:41;20.00;;;13.18;;
21729;SDS011;11027;51.030;13.812;2022-08-25T06:25:08;16.50;;;12.27;;
21729;SDS011;11027;51.030;13.812;2022-08-25T06:27:36;17.30;;;13.20;;
21729;SDS011;11027;51.030;13.812;2022-08-25T06:30:02;16.35;;;12.57;;
21729;SDS011;11027;51.030;13.812;2022-08-25T06:32:30;19.08;;;12.68;;
21729;SDS011;11027;51.030;13.812;2022-08-25T06:34:56;16.23;;;12.88;;
21729;SDS011;11027;51.030;13.812;2022-08-25T06:37:22;15.52;;;13.48;;
21729;SDS011;11027;51.030;13.812;2022-08-25T06:39:48;19.85;;;12.85;;
21729;SDS011;11027;51.030;13.812;2022-08-25T06:42:13;16.52;;;13.13;;
21729;SDS011;11027;51.030;13.812;2022-08-25T06:44:39;16.08;;;12.65;;
21729;SDS011;11027;51.030;13.812;2022-08-25T06:47:05;15.98;;;12.85;;
21729;SDS011;11027;51.030;13.812;2022-08-25T06:49:30;18.23;;;13.80;;
21729;SDS011;11027;51.030;13.812;2022-08-25T06:51:55;17.65;;;14.05;;
21729;SDS011;11027;51.030;13.812;2022-08-25T06:54:21;19.70;;;14.77;;
21729;SDS011;11027;51.030;13.812;2022-08-25T06:56:46;18.88;;;14.43;;
21729;SDS011;11027;51.030;13.812;2022-08-25T06:59:11;17.38;;;15.10;;
21729;SDS011;11027;51.030;13.812;2022-08-25T07:01:37;20.55;;;14.65;;
21729;SDS011;11027;51.030;13.812;2022-08-25T07:04:03;23.75;;;15.00;;
21729;SDS011;11027;51.030;13.812;2022-08-25T07:06:30;18.35;;;14.80;;
21729;SDS011;11027;51.030;13.812;2022-08-25T07:08:57;18.05;;;15.15;;
21729;SDS011;11027;51.030;13.812;2022-08-25T07:11:23;19.30;;;14.68;;
21729;SDS011;11027;51.030;13.812;2022-08-25T07:13:48;22.30;;;14.68;;
21729;SDS011;11027;51.030;13.812;2022-08-25T07:16:15;23.77;;;15.77;;
21729;SDS011;11027;51.030;13.812;2022-08-25T07:18:42;21.73;;;15.15;;
21729;SDS011;11027;51.030;13.812;2022-08-25T07:21:08;19.00;;;15.18;;
21729;SDS011;11027;51.030;13.812;2022-08-25T07:23:34;19.83;;;15.32;;
21729;SDS011;11027;51.030;13.812;2022-08-25T07:26:33;18.55;;;14.27;;
21729;SDS011;11027;51.030;13.812;2022-08-25T07:28:53;20.25;;;14.63;;
21729;SDS011;11027;51.030;13.812;2022-08-25T07:31:18;23.02;;;14.55;;
21729;SDS011;11027;51.030;13.812;2022-08-25T07:33:44;23.35;;;15.20;;
21729;SDS011;11027;51.030;13.812;2022-08-25T07:36:28;24.73;;;15.77;;
21729;SDS011;11027;51.030;13.812;2022-08-25T07:38:55;18.38;;;14.32;;
21729;SDS011;11027;51.030;13.812;2022-08-25T07:41:20;21.98;;;15.00;;
21729;SDS011;11027;51.030;13.812;2022-08-25T07:43:46;24.48;;;14.88;;
21729;SDS011;11027;51.030;13.812;2022-08-25T07:46:11;16.63;;;13.60;;
21729;SDS011;11027;51.030;13.812;2022-08-25T07:48:37;15.80;;;14.05;;
21729;SDS011;11027;51.030;13.812;2022-08-25T07:51:08;17.08;;;14.40;;
21729;SDS011;11027;51.030;13.812;2022-08-25T07:53:35;19.35;;;15.48;;
21729;SDS011;11027;51.030;13.812;2022-08-25T07:56:01;19.33;;;14.45;;
21729;SDS011;11027;51.030;13.812;2022-08-25T07:58:26;21.02;;;15.98;;
21729;SDS011;11027;51.030;13.812;2022-08-25T08:00:52;17.90;;;15.02;;
21729;SDS011;11027;51.030;13.812;2022-08-25T08:03:18;19.48;;;15.07;;
21729;SDS011;11027;51.030;13.812;2022-08-25T08:05:45;21.52;;;14.70;;
21729;SDS011;11027;51.030;13.812;2022-08-25T08:08:10;20.15;;;14.60;;
21729;SDS011;11027;51.030;13.812;2022-08-25T08:10:39;23.10;;;16.30;;
21729;SDS011;11027;51.030;13.812;2022-08-25T08:13:06;24.15;;;16.05;;
21729;SDS011;11027;51.030;13.812;2022-08-25T08:15:32;20.60;;;15.80;;
21729;SDS011;11027;51.030;13.812;2022-08-25T08:17:58;25.45;;;17.02;;
21729;SDS011;11027;51.030;13.812;2022-08-25T08:20:23;23.38;;;16.50;;
21729;SDS011;11027;51.030;13.812;2022-08-25T08:22:49;19.23;;;16.50;;
21729;SDS011;11027;51.030;13.812;2022-08-25T08:25:14;22.55;;;15.82;;
21729;SDS011;11027;51.030;13.812;2022-08-25T08:27:40;21.10;;;16.00;;
21729;SDS011;11027;51.030;13.812;2022-08-25T08:30:07;18.85;;;15.07;;
21729;SDS011;11027;51.030;13.812;2022-08-25T08:32:32;22.92;;;16.65;;
21729;SDS011;11027;51.030;13.812;2022-08-25T08:34:58;20.00;;;15.55;;
21729;SDS011;11027;51.030;13.812;2022-08-25T08:37:23;21.23;;;16.48;;
21729;SDS011;11027;51.030;13.812;2022-08-25T08:39:48;20.77;;;15.27;;
21729;SDS011;11027;51.030;13.812;2022-08-25T08:50:40;27.45;;;14.18;;
21729;SDS011;11027;51.030;13.812;2022-08-25T08:53:21;19.48;;;14.38;;
21729;SDS011;11027;51.030;13.812;2022-08-25T08:56:04;20.45;;;14.02;;
21729;SDS011;11027;51.030;13.812;2022-08-25T08:58:43;17.10;;;14.15;;
21729;SDS011;11027;51.030;13.812;2022-08-25T09:01:46;19.55;;;13.75;;
21729;SDS011;11027;51.030;13.812;2022-08-25T09:04:13;18.52;;;13.50;;
21729;SDS011;11027;51.030;13.812;2022-08-25T09:06:44;17.80;;;12.30;;
21729;SDS011;11027;51.030;13.812;2022-08-25T09:09:13;26.85;;;13.95;;
21729;SDS011;11027;51.030;13.812;2022-08-25T09:11:48;16.15;;;12.40;;
21729;SDS011;11027;51.030;13.812;2022-08-25T09:20:00;20.05;;;12.82;;
21729;SDS011;11027;51.030;13.812;2022-08-25T09:23:00;17.55;;;11.75;;
21729;SDS011;11027;51.030;13.812;2022-08-25T09:25:47;15.52;;;11.77;;
21729;SDS011;11027;51.030;13.812;2022-08-25T09:31:01;16.73;;;11.40;;
21729;SDS011;11027;51.030;13.812;2022-08-25T09:33:30;21.27;;;11.90;;
21729;SDS011;11027;51.030;13.812;2022-08-25T09:35:57;25.58;;;12.02;;
21729;SDS011;11027;51.030;13.812;2022-08-25T09:38:23;16.58;;;12.02;;
21729;SDS011;11027;51.030;13.812;2022-08-25T09:40:55;16.98;;;10.95;;
21729;SDS011;11027;51.030;13.812;2022-08-25T09:43:29;23.00;;;11.93;;
21729;SDS011;11027;51.030;13.812;2022-08-25T09:45:58;22.95;;;10.88;;
21729;SDS011;11027;51.030;13.812;2022-08-25T09:51:22;14.60;;;9.45;;
21729;SDS011;11027;51.030;13.812;2022-08-25T09:59:22;23.88;;;8.98;;
21729;SDS011;11027;51.030;13.812;2022-08-25T10:01:48;27.88;;;10.10;;
21729;SDS011;11027;51.030;13.812;2022-08-25T10:04:15;22.40;;;8.95;;
21729;SDS011;11027;51.030;13.812;2022-08-25T10:07:23;24.48;;;8.07;;
21729;SDS011;11027;51.030;13.812;2022-08-25T10:09:52;26.65;;;8.32;;
21729;SDS011;11027;51.030;13.812;2022-08-25T10:12:22;29.17;;;7.70;;
21729;SDS011;11027;51.030;13.812;2022-08-25T10:14:53;28.75;;;7.05;;
21729;SDS011;11027;51.030;13.812;2022-08-25T10:19:53;29.10;;;7.20;;
21729;SDS011;11027;51.030;13.812;2022-08-25T10:22:39;33.05;;;6.90;;
21729;SDS011;11027;51.030;13.812;2022-08-25T10:25:07;20.70;;;6.38;;
21729;SDS011;11027;51.030;13.812;2022-08-25T10:27:37;30.27;;;7.13;;
21729;SDS011;11027;51.030;13.812;2022-08-25T10:30:35;25.73;;;7.20;;
21729;SDS011;11027;51.030;13.812;2022-08-25T10:44:01;29.05;;;6.45;;
21729;SDS011;11027;51.030;13.812;2022-08-25T10:47:03;23.80;;;6.63;;
21729;SDS011;11027;51.030;13.812;2022-08-25T10:49:54;24.45;;;6.40;;
21729;SDS011;11027;51.030;13.812;2022-08-25T10:55:25;23.75;;;7.10;;
21729;SDS011;11027;51.030;13.812;2022-08-25T11:01:53;20.92;;;6.32;;
21729;SDS011;11027;51.030;13.812;2022-08-25T11:04:02;29.65;;;7.03;;
21729;SDS011;11027;51.030;13.812;2022-08-25T11:06:37;23.83;;;7.22;;
21729;SDS011;11027;51.030;13.812;2022-08-25T11:09:05;33.08;;;6.97;;
21729;SDS011;11027;51.030;13.812;2022-08-25T11:11:40;28.35;;;6.75;;
21729;SDS011;11027;51.030;13.812;2022-08-25T11:14:34;36.63;;;6.88;;
21729;SDS011;11027;51.030;13.812;2022-08-25T11:17:23;20.92;;;6.65;;
21729;SDS011;11027;51.030;13.812;2022-08-25T11:19:51;21.73;;;6.72;;
21729;SDS011;11027;51.030;13.812;2022-08-25T11:22:41;41.83;;;6.70;;
21729;SDS011;11027;51.030;13.812;2022-08-25T11:25:28;29.75;;;6.80;;
21729;SDS011;11027;51.030;13.812;2022-08-25T11:28:02;28.85;;;6.78;;
21729;SDS011;11027;51.030;13.812;2022-08-25T11:30:34;35.80;;;7.45;;
21729;SDS011;11027;51.030;13.812;2022-08-25T11:32:59;27.63;;;6.60;;
21729;SDS011;11027;51.030;13.812;2022-08-25T11:35:30;29.38;;;6.60;;
21729;SDS011;11027;51.030;13.812;2022-08-25T11:38:14;39.28;;;7.70;;
21729;SDS011;11027;51.030;13.812;2022-08-25T11:41:02;28.98;;;6.72;;
21729;SDS011;11027;51.030;13.812;2022-08-25T11:43:39;22.58;;;6.68;;
21729;SDS011;11027;51.030;13.812;2022-08-25T11:51:29;31.63;;;6.20;;
21729;SDS011;11027;51.030;13.812;2022-08-25T11:57:01;22.58;;;6.00;;
21729;SDS011;11027;51.030;13.812;2022-08-25T12:02:32;31.52;;;6.18;;
21729;SDS011;11027;51.030;13.812;2022-08-25T12:05:00;29.23;;;7.28;;
21729;SDS011;11027;51.030;13.812;2022-08-25T12:07:27;26.85;;;6.38;;
21729;SDS011;11027;51.030;13.812;2022-08-25T12:12:36;20.70;;;5.70;;
21729;SDS011;11027;51.030;13.812;2022-08-25T12:15:27;23.25;;;6.72;;
21729;SDS011;11027;51.030;13.812;2022-08-25T12:18:14;22.08;;;6.32;;
21729;SDS011;11027;51.030;13.812;2022-08-25T12:28:44;31.48;;;6.47;;
21729;SDS011;11027;51.030;13.812;2022-08-25T12:31:19;17.95;;;5.53;;
21729;SDS011;11027;51.030;13.812;2022-08-25T12:33:57;25.90;;;5.95;;
21729;SDS011;11027;51.030;13.812;2022-08-25T12:36:34;26.38;;;5.63;;
21729;SDS011;11027;51.030;13.812;2022-08-25T12:39:07;32.33;;;6.18;;
21729;SDS011;11027;51.030;13.812;2022-08-25T12:41:50;27.38;;;5.97;;
21729;SDS011;11027;51.030;13.812;2022-08-25T12:44:32;22.08;;;5.18;;
21729;SDS011;11027;51.030;13.812;2022-08-25T12:49:52;18.90;;;5.20;;
21729;SDS011;11027;51.030;13.812;2022-08-25T12:52:37;22.17;;;5.45;;
21729;SDS011;11027;51.030;13.812;2022-08-25T12:55:03;25.40;;;6.32;;
21729;SDS011;11027;51.030;13.812;2022-08-25T13:05:42;35.17;;;6.30;;
21729;SDS011;11027;51.030;13.812;2022-08-25T13:08:45;25.52;;;5.97;;
21729;SDS011;11027;51.030;13.812;2022-08-25T13:11:35;24.63;;;5.53;;
21729;SDS011;11027;51.030;13.812;2022-08-25T13:14:13;24.65;;;5.38;;
21729;SDS011;11027;51.030;13.812;2022-08-25T13:16:57;17.67;;;5.55;;
21729;SDS011;11027;51.030;13.812;2022-08-25T13:19:24;23.58;;;5.68;;
21729;SDS011;11027;51.030;13.812;2022-08-25T13:21:53;27.48;;;5.63;;
21729;SDS011;11027;51.030;13.812;2022-08-25T13:24:23;36.72;;;5.47;;
21729;SDS011;11027;51.030;13.812;2022-08-25T13:26:52;31.23;;;5.93;;
21729;SDS011;11027;51.030;13.812;2022-08-25T13:29:21;33.30;;;6.20;;
21729;SDS011;11027;51.030;13.812;2022-08-25T13:31:50;28.98;;;5.63;;
21729;SDS011;11027;51.030;13.812;2022-08-25T13:34:19;27.10;;;4.93;;
21729;SDS011;11027;51.030;13.812;2022-08-25T13:36:47;27.52;;;5.13;;
21729;SDS011;11027;51.030;13.812;2022-08-25T13:39:32;22.33;;;4.90;;
21729;SDS011;11027;51.030;13.812;2022-08-25T13:41:59;30.02;;;4.95;;
21729;SDS011;11027;51.030;13.812;2022-08-25T13:44:30;26.50;;;5.18;;
21729;SDS011;11027;51.030;13.812;2022-08-25T13:47:15;34.30;;;5.60;;
21729;SDS011;11027;51.030;13.812;2022-08-25T13:50:06;27.77;;;5.88;;
21729;SDS011;11027;51.030;13.812;2022-08-25T13:52:39;30.90;;;5.53;;
21729;SDS011;11027;51.030;13.812;2022-08-25T13:55:05;32.30;;;5.68;;
21729;SDS011;11027;51.030;13.812;2022-08-25T13:57:30;23.00;;;5.18;;
21729;SDS011;11027;51.030;13.812;2022-08-25T14:00:05;30.38;;;5.30;;
21729;SDS011;11027;51.030;13.812;2022-08-25T14:02:38;26.52;;;5.55;;
21729;SDS011;11027;51.030;13.812;2022-08-25T14:05:04;21.63;;;5.05;;
21729;SDS011;11027;51.030;13.812;2022-08-25T14:07:30;28.85;;;5.25;;
21729;SDS011;11027;51.030;13.812;2022-08-25T14:09:57;26.13;;;4.82;;
21729;SDS011;11027;51.030;13.812;2022-08-25T14:15:10;30.15;;;5.22;;
21729;SDS011;11027;51.030;13.812;2022-08-25T14:17:42;27.52;;;5.60;;
21729;SDS011;11027;51.030;13.812;2022-08-25T14:20:20;39.88;;;5.85;;
21729;SDS011;11027;51.030;13.812;2022-08-25T14:22:52;29.85;;;5.53;;
21729;SDS011;11027;51.030;13.812;2022-08-25T14:25:20;31.55;;;5.85;;
21729;SDS011;11027;51.030;13.812;2022-08-25T14:27:52;31.75;;;5.72;;
21729;SDS011;11027;51.030;13.812;2022-08-25T14:30:19;29.08;;;5.85;;
21729;SDS011;11027;51.030;13.812;2022-08-25T14:32:44;23.83;;;4.83;;
21729;SDS011;11027;51.030;13.812;2022-08-25T14:35:09;21.57;;;4.80;;
21729;SDS011;11027;51.030;13.812;2022-08-25T14:37:35;33.97;;;5.40;;
21729;SDS011;11027;51.030;13.812;2022-08-25T14:40:00;30.60;;;5.75;;
21729;SDS011;11027;51.030;13.812;2022-08-25T14:42:26;30.02;;;5.45;;
21729;SDS011;11027;51.030;13.812;2022-08-25T14:44:51;26.67;;;5.05;;
21729;SDS011;11027;51.030;13.812;2022-08-25T14:47:16;28.83;;;5.80;;
21729;SDS011;11027;51.030;13.812;2022-08-25T14:49:44;31.65;;;5.40;;
21729;SDS011;11027;51.030;13.812;2022-08-25T14:52:14;32.50;;;5.70;;
21729;SDS011;11027;51.030;13.812;2022-08-25T14:54:47;27.60;;;5.35;;
21729;SDS011;11027;51.030;13.812;2022-08-25T14:57:12;28.38;;;5.57;;
21729;SDS011;11027;51.030;13.812;2022-08-25T14:59:37;32.97;;;6.15;;
21729;SDS011;11027;51.030;13.812;2022-08-25T15:02:03;27.48;;;5.68;;
21729;SDS011;11027;51.030;13.812;2022-08-25T15:04:32;35.50;;;5.75;;
21729;SDS011;11027;51.030;13.812;2022-08-25T15:06:59;26.77;;;5.78;;
21729;SDS011;11027;51.030;13.812;2022-08-25T15:09:25;21.60;;;5.32;;
21729;SDS011;11027;51.030;13.812;2022-08-25T15:11:53;29.27;;;5.85;;
21729;SDS011;11027;51.030;13.812;2022-08-25T15:14:21;24.90;;;5.57;;
21729;SDS011;11027;51.030;13.812;2022-08-25T15:16:49;21.75;;;5.18;;
21729;SDS011;11027;51.030;13.812;2022-08-25T15:19:17;21.88;;;5.30;;
21729;SDS011;11027;51.030;13.812;2022-08-25T15:21:45;26.90;;;5.45;;
21729;SDS011;11027;51.030;13.812;2022-08-25T15:24:11;36.53;;;6.35;;
21729;SDS011;11027;51.030;13.812;2022-08-25T15:26:45;28.88;;;5.88;;
21729;SDS011;11027;51.030;13.812;2022-08-25T15:29:16;31.33;;;5.47;;
21729;SDS011;11027;51.030;13.812;2022-08-25T15:31:42;23.65;;;5.50;;
21729;SDS011;11027;51.030;13.812;2022-08-25T15:34:07;27.42;;;5.90;;
21729;SDS011;11027;51.030;13.812;2022-08-25T15:36:35;19.67;;;5.28;;
21729;SDS011;11027;51.030;13.812;2022-08-25T15:39:01;27.30;;;5.47;;
21729;SDS011;11027;51.030;13.812;2022-08-25T15:41:28;33.22;;;6.15;;
21729;SDS011;11027;51.030;13.812;2022-08-25T15:43:54;31.13;;;6.18;;
21729;SDS011;11027;51.030;13.812;2022-08-25T15:46:20;32.40;;;5.82;;
21729;SDS011;11027;51.030;13.812;2022-08-25T15:48:47;27.85;;;6.30;;